Lake Charles — WDF4884 — position and weather

sailwx.info

Track history (hours):
 
Tides and Currents Weather Stations Pressure Air Temp Water Temp Dewpoint Dewpoint Depression Visibility Wind Speed Wind Dir Waves Ship Positions

Lake Charles

Owner: Canal Barge Company, Inc., Belle Chasse, LA. More information available from US FCC via Universal Licensing System and Coast Guard Vessel Documentation Center.

Last reported at 2017-Nov-20 00:31 UTC. Time now 2017-Nov-22 09:16 UTC.
Position N 30°04' W 093°25'.

Length 23 m; draft 3 m.

Type: Tow > 200 m length. MMSI: 367456860.

Date/timePositionNaut miles runAvg speedWind from/ knotsBaromVisibWave heightAir tempDewpointWater temp
2017-Nov-20 00:31N 30°04' W 093°25'2 4.9
2017-Nov-20 00:00N 30°04' W 093°28'2 3.3
2017-Nov-19 23:31N 30°04' W 093°30'0 0.0
2017-Nov-19 23:00N 30°04' W 093°30'1 1.1
2017-Nov-19 22:30N 30°04' W 093°30'2 3.0
2017-Nov-19 21:58N 30°04' W 093°32'1 0.7
2017-Nov-19 20:58N 30°04' W 093°33'  
2017-Nov-16 20:02N 30°04' W 093°34'1 5.6
2017-Nov-16 19:52N 30°04' W 093°33'2 5.6
2017-Nov-16 19:30N 30°04' W 093°30'3 5.7
2017-Nov-16 19:01N 30°04' W 093°27'3 5.6
2017-Nov-16 18:31N 30°04' W 093°24'2 4.6
2017-Nov-16 18:00N 30°04' W 093°21'2 4.0
2017-Nov-16 17:31N 30°05' W 093°20'2 3.2
2017-Nov-16 17:01N 30°05' W 093°18'2 3.1
2017-Nov-16 16:30N 30°04' W 093°16'1 1.3
2017-Nov-16 16:00N 30°04' W 093°16'0 0.0
2017-Nov-16 15:30N 30°04' W 093°16'0 0.0
2017-Nov-16 15:01N 30°04' W 093°16'0 0.0
2017-Nov-16 14:31N 30°04' W 093°16'0 0.0
2017-Nov-16 14:00N 30°04' W 093°16'0 0.1
2017-Nov-16 13:30N 30°04' W 093°16'0 0.0
2017-Nov-16 13:01N 30°04' W 093°16'0 0.0
2017-Nov-16 12:31N 30°04' W 093°16'0 0.1
2017-Nov-16 12:00N 30°04' W 093°16'0 0.1
2017-Nov-16 11:30N 30°04' W 093°16'0 0.0
2017-Nov-16 11:00N 30°04' W 093°16'0 0.0
2017-Nov-16 10:31N 30°04' W 093°16'0 0.0
2017-Nov-16 10:00N 30°04' W 093°16'0 0.0
2017-Nov-16 09:30N 30°04' W 093°16'0 0.1
2017-Nov-16 09:00N 30°04' W 093°16'0 0.0
2017-Nov-16 08:31N 30°04' W 093°16'0 0.0
2017-Nov-16 08:00N 30°04' W 093°16'0 0.0
2017-Nov-16 07:31N 30°04' W 093°16'0 0.0
2017-Nov-16 07:01N 30°04' W 093°16'0 0.0
2017-Nov-16 06:30N 30°04' W 093°16'0 0.0
2017-Nov-16 06:00N 30°04' W 093°16'0 0.0
2017-Nov-16 05:30N 30°04' W 093°16'0 0.1
2017-Nov-16 05:00N 30°04' W 093°16'0 0.1
2017-Nov-16 04:30N 30°04' W 093°16'0 0.0
2017-Nov-16 04:00N 30°04' W 093°16'1 1.6
2017-Nov-16 03:30N 30°03' W 093°16'2 4.4
2017-Nov-16 03:00N 30°01' W 093°14'2 3.9
2017-Nov-16 02:30N 29°60' W 093°13'2 4.4
2017-Nov-16 02:00N 29°58' W 093°11'3 5.0
2017-Nov-16 01:30N 29°56' W 093°10'37 4.2
2017-Nov-15 16:30N 29°53' W 092°26'5 5.6
2017-Nov-15 15:38N 29°51' W 092°22'1 5.7
2017-Nov-15 15:30N 29°51' W 092°21'3 5.6
2017-Nov-15 15:00N 29°50' W 092°18'3 5.1
2017-Nov-15 14:30N 29°48' W 092°15'2 4.4
2017-Nov-15 14:00N 29°47' W 092°13'1 1.3
2017-Nov-15 13:30N 29°47' W 092°12'1 1.4
2017-Nov-15 13:00N 29°47' W 092°12'1 2.4
2017-Nov-15 12:30N 29°47' W 092°10'2 4.7
2017-Nov-15 12:00N 29°47' W 092°08'2 4.8
2017-Nov-15 11:30N 29°48' W 092°05'2 4.8
2017-Nov-15 11:00N 29°49' W 092°03'3 5.1
2017-Nov-15 10:30N 29°50' W 091°60'3 5.5
2017-Nov-15 10:00N 29°51' W 091°57'61 4.3
2017-Nov-14 19:54N 29°32' W 090°50'2 5.7
2017-Nov-14 19:31N 29°32' W 090°48'3 5.0
2017-Nov-14 19:01N 29°33' W 090°45'2 4.2
2017-Nov-14 18:30N 29°34' W 090°43'2 4.3
2017-Nov-14 18:00N 29°37' W 090°42'1 2.0
2017-Nov-14 17:31N 29°37' W 090°41'1 2.4
2017-Nov-14 17:01N 29°36' W 090°40'1 2.4
2017-Nov-14 16:30N 29°36' W 090°39'3 5.1
2017-Nov-14 16:00N 29°35' W 090°36'3 5.4
2017-Nov-14 15:30N 29°34' W 090°33'3 5.8
2017-Nov-14 15:00N 29°34' W 090°30'3 5.5
2017-Nov-14 14:24N 29°33' W 090°26'  
2017-Nov-10 16:55N 29°34' W 090°29'4 6.0
2017-Nov-10 16:12N 29°34' W 090°34'1 6.0
2017-Nov-10 16:00N 29°35' W 090°35'1 2.7
2017-Nov-10 15:30N 29°35' W 090°37'2 4.0
2017-Nov-10 15:01N 29°36' W 090°39'3 5.2
2017-Nov-10 14:31N 29°37' W 090°42'2 4.1
2017-Nov-10 14:01N 29°35' W 090°43'1 2.9
2017-Nov-10 13:30N 29°34' W 090°44'2 3.3
2017-Nov-10 13:01N 29°33' W 090°45'0 0.0
2017-Nov-10 12:30N 29°33' W 090°45'0 0.0
2017-Nov-10 12:01N 29°33' W 090°45'0 0.0
2017-Nov-10 10:31N 29°33' W 090°45'0 0.0
2017-Nov-10 10:30N 29°33' W 090°45'0 0.0
2017-Nov-10 10:01N 29°33' W 090°45'0 0.0
2017-Nov-10 09:30N 29°33' W 090°45'0 0.0
2017-Nov-10 09:01N 29°33' W 090°45'0 0.0
2017-Nov-10 08:31N 29°33' W 090°45'0 0.0
2017-Nov-10 08:01N 29°33' W 090°45'0 0.7
2017-Nov-10 07:31N 29°32' W 090°46'0 0.0
2017-Nov-10 07:00N 29°32' W 090°46'0 0.0
2017-Nov-10 06:30N 29°32' W 090°46'0 0.0
2017-Nov-10 06:00N 29°32' W 090°46'0 0.2
2017-Nov-10 05:31N 29°32' W 090°46'2 4.0
2017-Nov-10 05:01N 29°32' W 090°48'4 7.3
2017-Nov-10 04:28N 29°32' W 090°52'3 7.2
2017-Nov-10 03:59N 29°34' W 090°56'  
Track history (hours):
 
Tides and Currents Weather Stations Pressure Air Temp Water Temp Dewpoint Dewpoint Depression Visibility Wind Speed Wind Dir Waves Ship Positions

Lake Charles

Owner: Canal Barge Company, Inc., Belle Chasse, LA. More information available from US FCC via Universal Licensing System and Coast Guard Vessel Documentation Center.

Last reported at 2017-Nov-20 00:31 UTC. Time now 2017-Nov-22 09:16 UTC.
Position N 30°04' W 093°25'.

Length 23 m; draft 3 m.

Type: Tow > 200 m length. MMSI: 367456860.

Date/timePositionNaut miles runAvg speedWind from/ knotsBaromVisibWave heightAir tempDewpointWater temp
2017-Nov-20 00:31N 30°04' W 093°25'2 4.9
2017-Nov-20 00:00N 30°04' W 093°28'2 3.3
2017-Nov-19 23:31N 30°04' W 093°30'0 0.0
2017-Nov-19 23:00N 30°04' W 093°30'1 1.1
2017-Nov-19 22:30N 30°04' W 093°30'2 3.0
2017-Nov-19 21:58N 30°04' W 093°32'1 0.7
2017-Nov-19 20:58N 30°04' W 093°33'  
2017-Nov-16 20:02N 30°04' W 093°34'1 5.6
2017-Nov-16 19:52N 30°04' W 093°33'2 5.6
2017-Nov-16 19:30N 30°04' W 093°30'3 5.7
2017-Nov-16 19:01N 30°04' W 093°27'3 5.6
2017-Nov-16 18:31N 30°04' W 093°24'2 4.6
2017-Nov-16 18:00N 30°04' W 093°21'2 4.0
2017-Nov-16 17:31N 30°05' W 093°20'2 3.2
2017-Nov-16 17:01N 30°05' W 093°18'2 3.1
2017-Nov-16 16:30N 30°04' W 093°16'1 1.3
2017-Nov-16 16:00N 30°04' W 093°16'0 0.0
2017-Nov-16 15:30N 30°04' W 093°16'0 0.0
2017-Nov-16 15:01N 30°04' W 093°16'0 0.0
2017-Nov-16 14:31N 30°04' W 093°16'0 0.0
2017-Nov-16 14:00N 30°04' W 093°16'0 0.1
2017-Nov-16 13:30N 30°04' W 093°16'0 0.0
2017-Nov-16 13:01N 30°04' W 093°16'0 0.0
2017-Nov-16 12:31N 30°04' W 093°16'0 0.1
2017-Nov-16 12:00N 30°04' W 093°16'0 0.1
2017-Nov-16 11:30N 30°04' W 093°16'0 0.0
2017-Nov-16 11:00N 30°04' W 093°16'0 0.0
2017-Nov-16 10:31N 30°04' W 093°16'0 0.0
2017-Nov-16 10:00N 30°04' W 093°16'0 0.0
2017-Nov-16 09:30N 30°04' W 093°16'0 0.1
2017-Nov-16 09:00N 30°04' W 093°16'0 0.0
2017-Nov-16 08:31N 30°04' W 093°16'0 0.0
2017-Nov-16 08:00N 30°04' W 093°16'0 0.0
2017-Nov-16 07:31N 30°04' W 093°16'0 0.0
2017-Nov-16 07:01N 30°04' W 093°16'0 0.0
2017-Nov-16 06:30N 30°04' W 093°16'0 0.0
2017-Nov-16 06:00N 30°04' W 093°16'0 0.0
2017-Nov-16 05:30N 30°04' W 093°16'0 0.1
2017-Nov-16 05:00N 30°04' W 093°16'0 0.1
2017-Nov-16 04:30N 30°04' W 093°16'0 0.0
2017-Nov-16 04:00N 30°04' W 093°16'1 1.6
2017-Nov-16 03:30N 30°03' W 093°16'2 4.4
2017-Nov-16 03:00N 30°01' W 093°14'2 3.9
2017-Nov-16 02:30N 29°60' W 093°13'2 4.4
2017-Nov-16 02:00N 29°58' W 093°11'3 5.0
2017-Nov-16 01:30N 29°56' W 093°10'37 4.2
2017-Nov-15 16:30N 29°53' W 092°26'5 5.6
2017-Nov-15 15:38N 29°51' W 092°22'1 5.7
2017-Nov-15 15:30N 29°51' W 092°21'3 5.6
2017-Nov-15 15:00N 29°50' W 092°18'3 5.1
2017-Nov-15 14:30N 29°48' W 092°15'2 4.4
2017-Nov-15 14:00N 29°47' W 092°13'1 1.3
2017-Nov-15 13:30N 29°47' W 092°12'1 1.4
2017-Nov-15 13:00N 29°47' W 092°12'1 2.4
2017-Nov-15 12:30N 29°47' W 092°10'2 4.7
2017-Nov-15 12:00N 29°47' W 092°08'2 4.8
2017-Nov-15 11:30N 29°48' W 092°05'2 4.8
2017-Nov-15 11:00N 29°49' W 092°03'3 5.1
2017-Nov-15 10:30N 29°50' W 091°60'3 5.5
2017-Nov-15 10:00N 29°51' W 091°57'61 4.3
2017-Nov-14 19:54N 29°32' W 090°50'2 5.7
2017-Nov-14 19:31N 29°32' W 090°48'3 5.0
2017-Nov-14 19:01N 29°33' W 090°45'2 4.2
2017-Nov-14 18:30N 29°34' W 090°43'2 4.3
2017-Nov-14 18:00N 29°37' W 090°42'1 2.0
2017-Nov-14 17:31N 29°37' W 090°41'1 2.4
2017-Nov-14 17:01N 29°36' W 090°40'1 2.4
2017-Nov-14 16:30N 29°36' W 090°39'3 5.1
2017-Nov-14 16:00N 29°35' W 090°36'3 5.4
2017-Nov-14 15:30N 29°34' W 090°33'3 5.8
2017-Nov-14 15:00N 29°34' W 090°30'3 5.5
2017-Nov-14 14:24N 29°33' W 090°26'  
2017-Nov-10 16:55N 29°34' W 090°29'4 6.0
2017-Nov-10 16:12N 29°34' W 090°34'1 6.0
2017-Nov-10 16:00N 29°35' W 090°35'1 2.7
2017-Nov-10 15:30N 29°35' W 090°37'2 4.0
2017-Nov-10 15:01N 29°36' W 090°39'3 5.2
2017-Nov-10 14:31N 29°37' W 090°42'2 4.1
2017-Nov-10 14:01N 29°35' W 090°43'1 2.9
2017-Nov-10 13:30N 29°34' W 090°44'2 3.3
2017-Nov-10 13:01N 29°33' W 090°45'0 0.0
2017-Nov-10 12:30N 29°33' W 090°45'0 0.0
2017-Nov-10 12:01N 29°33' W 090°45'0 0.0
2017-Nov-10 10:31N 29°33' W 090°45'0 0.0
2017-Nov-10 10:30N 29°33' W 090°45'0 0.0
2017-Nov-10 10:01N 29°33' W 090°45'0 0.0
2017-Nov-10 09:30N 29°33' W 090°45'0 0.0
2017-Nov-10 09:01N 29°33' W 090°45'0 0.0
2017-Nov-10 08:31N 29°33' W 090°45'0 0.0
2017-Nov-10 08:01N 29°33' W 090°45'0 0.7
2017-Nov-10 07:31N 29°32' W 090°46'0 0.0
2017-Nov-10 07:00N 29°32' W 090°46'0 0.0
2017-Nov-10 06:30N 29°32' W 090°46'0 0.0
2017-Nov-10 06:00N 29°32' W 090°46'0 0.2
2017-Nov-10 05:31N 29°32' W 090°46'2 4.0
2017-Nov-10 05:01N 29°32' W 090°48'4 7.3
2017-Nov-10 04:28N 29°32' W 090°52'3 7.2
2017-Nov-10 03:59N 29°34' W 090°56'  

Dump ship's entire track history